sensor_id;sensor_type;location;lat;lon;timestamp;P1;durP1;ratioP1;P2;durP2;ratioP2
19828;SDS011;10075;50.924;4.396;2023-09-19T00:00:06;13.90;;;2.63;;
19828;SDS011;10075;50.924;4.396;2023-09-19T00:02:37;15.15;;;3.72;;
19828;SDS011;10075;50.924;4.396;2023-09-19T00:05:05;16.05;;;3.20;;
19828;SDS011;10075;50.924;4.396;2023-09-19T00:07:33;12.82;;;2.88;;
19828;SDS011;10075;50.924;4.396;2023-09-19T00:10:02;22.77;;;3.20;;
19828;SDS011;10075;50.924;4.396;2023-09-19T00:12:29;14.35;;;2.58;;
19828;SDS011;10075;50.924;4.396;2023-09-19T00:14:59;17.75;;;3.03;;
19828;SDS011;10075;50.924;4.396;2023-09-19T00:17:26;16.63;;;2.80;;
19828;SDS011;10075;50.924;4.396;2023-09-19T00:19:55;10.80;;;2.58;;
19828;SDS011;10075;50.924;4.396;2023-09-19T00:22:22;22.88;;;3.70;;
19828;SDS011;10075;50.924;4.396;2023-09-19T00:24:51;15.32;;;2.83;;
19828;SDS011;10075;50.924;4.396;2023-09-19T00:27:18;15.57;;;2.92;;
19828;SDS011;10075;50.924;4.396;2023-09-19T00:29:45;13.30;;;2.60;;
19828;SDS011;10075;50.924;4.396;2023-09-19T00:32:13;11.02;;;2.38;;
19828;SDS011;10075;50.924;4.396;2023-09-19T00:34:40;16.40;;;2.75;;
19828;SDS011;10075;50.924;4.396;2023-09-19T00:37:08;9.50;;;2.45;;
19828;SDS011;10075;50.924;4.396;2023-09-19T00:39:36;14.52;;;2.67;;
19828;SDS011;10075;50.924;4.396;2023-09-19T00:42:03;12.98;;;2.50;;
19828;SDS011;10075;50.924;4.396;2023-09-19T00:44:30;17.02;;;2.92;;
19828;SDS011;10075;50.924;4.396;2023-09-19T00:46:59;12.20;;;2.80;;
19828;SDS011;10075;50.924;4.396;2023-09-19T00:49:28;13.95;;;2.70;;
19828;SDS011;10075;50.924;4.396;2023-09-19T00:51:55;11.57;;;2.75;;
19828;SDS011;10075;50.924;4.396;2023-09-19T00:54:22;13.43;;;2.85;;
19828;SDS011;10075;50.924;4.396;2023-09-19T00:56:50;11.75;;;2.30;;
19828;SDS011;10075;50.924;4.396;2023-09-19T00:59:19;11.63;;;2.38;;
19828;SDS011;10075;50.924;4.396;2023-09-19T01:01:47;14.80;;;2.70;;
19828;SDS011;10075;50.924;4.396;2023-09-19T01:04:18;18.88;;;2.90;;
19828;SDS011;10075;50.924;4.396;2023-09-19T01:06:46;16.75;;;2.47;;
19828;SDS011;10075;50.924;4.396;2023-09-19T01:09:18;14.65;;;3.13;;
19828;SDS011;10075;50.924;4.396;2023-09-19T01:11:45;12.45;;;2.58;;
19828;SDS011;10075;50.924;4.396;2023-09-19T01:14:20;21.90;;;3.42;;
19828;SDS011;10075;50.924;4.396;2023-09-19T01:16:56;17.70;;;3.08;;
19828;SDS011;10075;50.924;4.396;2023-09-19T01:22:37;10.07;;;2.47;;
19828;SDS011;10075;50.924;4.396;2023-09-19T01:28:34;16.17;;;2.95;;
19828;SDS011;10075;50.924;4.396;2023-09-19T01:31:21;19.25;;;3.25;;
19828;SDS011;10075;50.924;4.396;2023-09-19T01:33:57;9.93;;;2.50;;
19828;SDS011;10075;50.924;4.396;2023-09-19T01:36:26;11.85;;;2.97;;
19828;SDS011;10075;50.924;4.396;2023-09-19T01:38:54;10.88;;;2.63;;
19828;SDS011;10075;50.924;4.396;2023-09-19T01:41:25;17.05;;;3.38;;
19828;SDS011;10075;50.924;4.396;2023-09-19T01:43:56;14.27;;;2.80;;
19828;SDS011;10075;50.924;4.396;2023-09-19T01:46:29;14.40;;;2.97;;
19828;SDS011;10075;50.924;4.396;2023-09-19T01:49:04;17.17;;;2.67;;
19828;SDS011;10075;50.924;4.396;2023-09-19T01:51:43;17.45;;;3.28;;
19828;SDS011;10075;50.924;4.396;2023-09-19T01:54:18;14.35;;;2.85;;
19828;SDS011;10075;50.924;4.396;2023-09-19T01:56:53;13.02;;;3.03;;
19828;SDS011;10075;50.924;4.396;2023-09-19T01:59:30;14.70;;;2.88;;
19828;SDS011;10075;50.924;4.396;2023-09-19T02:02:03;11.15;;;2.88;;
19828;SDS011;10075;50.924;4.396;2023-09-19T02:04:32;13.32;;;3.10;;
19828;SDS011;10075;50.924;4.396;2023-09-19T02:07:00;18.80;;;2.90;;
19828;SDS011;10075;50.924;4.396;2023-09-19T02:09:27;16.23;;;2.70;;
19828;SDS011;10075;50.924;4.396;2023-09-19T02:11:54;13.88;;;3.05;;
19828;SDS011;10075;50.924;4.396;2023-09-19T02:14:22;15.35;;;2.60;;
19828;SDS011;10075;50.924;4.396;2023-09-19T02:16:49;10.60;;;2.65;;
19828;SDS011;10075;50.924;4.396;2023-09-19T02:19:17;14.77;;;3.22;;
19828;SDS011;10075;50.924;4.396;2023-09-19T02:21:46;12.77;;;2.75;;
19828;SDS011;10075;50.924;4.396;2023-09-19T02:24:13;17.20;;;3.03;;
19828;SDS011;10075;50.924;4.396;2023-09-19T02:26:41;16.13;;;3.30;;
19828;SDS011;10075;50.924;4.396;2023-09-19T02:29:09;15.57;;;2.88;;
19828;SDS011;10075;50.924;4.396;2023-09-19T02:31:38;11.90;;;3.05;;
19828;SDS011;10075;50.924;4.396;2023-09-19T02:34:05;9.82;;;2.83;;
19828;SDS011;10075;50.924;4.396;2023-09-19T02:36:33;10.80;;;2.80;;
19828;SDS011;10075;50.924;4.396;2023-09-19T02:39:00;11.57;;;2.60;;
19828;SDS011;10075;50.924;4.396;2023-09-19T02:41:27;13.30;;;3.28;;
19828;SDS011;10075;50.924;4.396;2023-09-19T02:43:54;14.70;;;2.88;;
19828;SDS011;10075;50.924;4.396;2023-09-19T02:46:22;14.50;;;2.85;;
19828;SDS011;10075;50.924;4.396;2023-09-19T02:48:49;16.83;;;3.22;;
19828;SDS011;10075;50.924;4.396;2023-09-19T02:51:16;14.88;;;3.40;;
19828;SDS011;10075;50.924;4.396;2023-09-19T02:53:44;13.07;;;2.95;;
19828;SDS011;10075;50.924;4.396;2023-09-19T02:56:12;14.57;;;3.05;;
19828;SDS011;10075;50.924;4.396;2023-09-19T02:58:40;15.70;;;3.08;;
19828;SDS011;10075;50.924;4.396;2023-09-19T03:01:09;17.95;;;3.40;;
19828;SDS011;10075;50.924;4.396;2023-09-19T03:03:37;14.55;;;3.00;;
19828;SDS011;10075;50.924;4.396;2023-09-19T03:06:05;14.20;;;3.13;;
19828;SDS011;10075;50.924;4.396;2023-09-19T03:08:34;11.95;;;3.20;;
19828;SDS011;10075;50.924;4.396;2023-09-19T03:11:04;15.27;;;2.72;;
19828;SDS011;10075;50.924;4.396;2023-09-19T03:13:33;11.32;;;3.20;;
19828;SDS011;10075;50.924;4.396;2023-09-19T03:16:01;12.70;;;2.60;;
19828;SDS011;10075;50.924;4.396;2023-09-19T03:18:30;10.63;;;2.63;;
19828;SDS011;10075;50.924;4.396;2023-09-19T03:20:58;12.13;;;2.70;;
19828;SDS011;10075;50.924;4.396;2023-09-19T03:23:26;15.02;;;2.85;;
19828;SDS011;10075;50.924;4.396;2023-09-19T03:25:53;13.68;;;2.83;;
19828;SDS011;10075;50.924;4.396;2023-09-19T03:28:22;12.65;;;2.40;;
19828;SDS011;10075;50.924;4.396;2023-09-19T03:30:57;14.93;;;2.63;;
19828;SDS011;10075;50.924;4.396;2023-09-19T03:33:26;12.65;;;2.83;;
19828;SDS011;10075;50.924;4.396;2023-09-19T03:35:53;11.05;;;2.55;;
19828;SDS011;10075;50.924;4.396;2023-09-19T03:38:20;13.13;;;3.00;;
19828;SDS011;10075;50.924;4.396;2023-09-19T03:40:47;12.07;;;2.60;;
19828;SDS011;10075;50.924;4.396;2023-09-19T03:43:14;16.63;;;3.10;;
19828;SDS011;10075;50.924;4.396;2023-09-19T03:45:43;14.32;;;3.10;;
19828;SDS011;10075;50.924;4.396;2023-09-19T03:48:11;13.30;;;2.40;;
19828;SDS011;10075;50.924;4.396;2023-09-19T03:50:39;20.13;;;3.40;;
19828;SDS011;10075;50.924;4.396;2023-09-19T03:53:06;16.75;;;2.85;;
19828;SDS011;10075;50.924;4.396;2023-09-19T03:55:33;13.43;;;2.60;;
19828;SDS011;10075;50.924;4.396;2023-09-19T03:58:01;15.43;;;2.67;;
19828;SDS011;10075;50.924;4.396;2023-09-19T04:00:29;9.48;;;2.80;;
19828;SDS011;10075;50.924;4.396;2023-09-19T04:06:19;14.20;;;2.90;;
19828;SDS011;10075;50.924;4.396;2023-09-19T04:08:47;17.13;;;3.40;;
19828;SDS011;10075;50.924;4.396;2023-09-19T04:11:14;13.15;;;2.67;;
19828;SDS011;10075;50.924;4.396;2023-09-19T04:13:41;19.90;;;3.20;;
19828;SDS011;10075;50.924;4.396;2023-09-19T04:16:08;16.52;;;2.88;;
19828;SDS011;10075;50.924;4.396;2023-09-19T04:18:35;12.93;;;2.90;;
19828;SDS011;10075;50.924;4.396;2023-09-19T04:21:04;16.60;;;3.83;;
19828;SDS011;10075;50.924;4.396;2023-09-19T04:23:33;15.57;;;2.97;;
19828;SDS011;10075;50.924;4.396;2023-09-19T04:25:59;14.20;;;3.03;;
19828;SDS011;10075;50.924;4.396;2023-09-19T04:28:28;15.63;;;3.13;;
19828;SDS011;10075;50.924;4.396;2023-09-19T04:30:56;16.25;;;3.05;;
19828;SDS011;10075;50.924;4.396;2023-09-19T04:33:23;12.32;;;3.20;;
19828;SDS011;10075;50.924;4.396;2023-09-19T04:35:52;16.73;;;2.95;;
19828;SDS011;10075;50.924;4.396;2023-09-19T04:38:20;13.13;;;2.90;;
19828;SDS011;10075;50.924;4.396;2023-09-19T04:40:48;19.00;;;3.22;;
19828;SDS011;10075;50.924;4.396;2023-09-19T04:43:15;13.15;;;2.83;;
19828;SDS011;10075;50.924;4.396;2023-09-19T04:45:42;9.75;;;2.50;;
19828;SDS011;10075;50.924;4.396;2023-09-19T04:48:09;12.95;;;3.38;;
19828;SDS011;10075;50.924;4.396;2023-09-19T04:50:37;11.60;;;2.95;;
19828;SDS011;10075;50.924;4.396;2023-09-19T04:53:04;12.52;;;2.90;;
19828;SDS011;10075;50.924;4.396;2023-09-19T04:55:32;15.98;;;3.85;;
19828;SDS011;10075;50.924;4.396;2023-09-19T04:58:00;11.23;;;3.45;;
19828;SDS011;10075;50.924;4.396;2023-09-19T05:00:27;13.13;;;3.15;;
19828;SDS011;10075;50.924;4.396;2023-09-19T05:02:56;13.65;;;3.13;;
19828;SDS011;10075;50.924;4.396;2023-09-19T05:05:23;9.90;;;2.80;;
19828;SDS011;10075;50.924;4.396;2023-09-19T05:07:51;12.55;;;2.70;;
19828;SDS011;10075;50.924;4.396;2023-09-19T05:10:20;18.65;;;3.25;;
19828;SDS011;10075;50.924;4.396;2023-09-19T05:12:48;13.68;;;2.80;;
19828;SDS011;10075;50.924;4.396;2023-09-19T05:15:18;15.05;;;3.08;;
19828;SDS011;10075;50.924;4.396;2023-09-19T05:17:47;15.88;;;3.13;;
19828;SDS011;10075;50.924;4.396;2023-09-19T05:20:15;16.55;;;2.65;;
19828;SDS011;10075;50.924;4.396;2023-09-19T05:22:43;16.08;;;3.40;;
19828;SDS011;10075;50.924;4.396;2023-09-19T05:25:11;13.70;;;3.00;;
19828;SDS011;10075;50.924;4.396;2023-09-19T05:27:41;17.50;;;3.97;;
19828;SDS011;10075;50.924;4.396;2023-09-19T05:30:09;13.88;;;2.70;;
19828;SDS011;10075;50.924;4.396;2023-09-19T05:32:40;14.23;;;3.00;;
19828;SDS011;10075;50.924;4.396;2023-09-19T05:35:08;15.68;;;3.42;;
19828;SDS011;10075;50.924;4.396;2023-09-19T05:37:38;13.68;;;3.00;;
19828;SDS011;10075;50.924;4.396;2023-09-19T05:41:50;21.00;;;3.60;;
19828;SDS011;10075;50.924;4.396;2023-09-19T05:44:17;13.27;;;3.22;;
19828;SDS011;10075;50.924;4.396;2023-09-19T05:46:44;15.52;;;3.05;;
19828;SDS011;10075;50.924;4.396;2023-09-19T05:49:13;11.65;;;2.80;;
19828;SDS011;10075;50.924;4.396;2023-09-19T05:51:40;14.68;;;3.25;;
19828;SDS011;10075;50.924;4.396;2023-09-19T05:54:08;14.20;;;2.92;;
19828;SDS011;10075;50.924;4.396;2023-09-19T05:56:36;18.83;;;3.05;;
19828;SDS011;10075;50.924;4.396;2023-09-19T05:59:04;18.50;;;3.00;;
19828;SDS011;10075;50.924;4.396;2023-09-19T06:01:31;19.65;;;3.40;;
19828;SDS011;10075;50.924;4.396;2023-09-19T06:03:59;17.05;;;3.30;;
19828;SDS011;10075;50.924;4.396;2023-09-19T06:06:26;18.60;;;3.80;;
19828;SDS011;10075;50.924;4.396;2023-09-19T06:08:53;11.00;;;2.22;;
19828;SDS011;10075;50.924;4.396;2023-09-19T06:11:20;20.58;;;3.47;;
19828;SDS011;10075;50.924;4.396;2023-09-19T06:13:48;17.10;;;3.08;;
19828;SDS011;10075;50.924;4.396;2023-09-19T06:16:17;12.07;;;3.08;;
19828;SDS011;10075;50.924;4.396;2023-09-19T06:18:44;24.45;;;4.05;;
19828;SDS011;10075;50.924;4.396;2023-09-19T06:21:11;20.20;;;3.13;;
19828;SDS011;10075;50.924;4.396;2023-09-19T06:23:39;14.18;;;3.47;;
19828;SDS011;10075;50.924;4.396;2023-09-19T06:26:06;10.35;;;2.60;;
19828;SDS011;10075;50.924;4.396;2023-09-19T06:28:33;12.90;;;2.85;;
19828;SDS011;10075;50.924;4.396;2023-09-19T06:31:01;16.70;;;2.90;;
19828;SDS011;10075;50.924;4.396;2023-09-19T06:33:34;16.83;;;3.50;;
19828;SDS011;10075;50.924;4.396;2023-09-19T06:36:03;17.65;;;3.35;;
19828;SDS011;10075;50.924;4.396;2023-09-19T06:38:31;18.05;;;3.13;;
19828;SDS011;10075;50.924;4.396;2023-09-19T06:40:59;10.93;;;3.08;;
19828;SDS011;10075;50.924;4.396;2023-09-19T06:43:29;9.65;;;2.38;;
19828;SDS011;10075;50.924;4.396;2023-09-19T06:45:57;17.13;;;3.00;;
19828;SDS011;10075;50.924;4.396;2023-09-19T06:48:25;16.15;;;3.00;;
19828;SDS011;10075;50.924;4.396;2023-09-19T06:50:55;16.13;;;3.80;;
19828;SDS011;10075;50.924;4.396;2023-09-19T06:53:23;12.70;;;2.30;;
19828;SDS011;10075;50.924;4.396;2023-09-19T06:55:50;12.85;;;2.47;;
19828;SDS011;10075;50.924;4.396;2023-09-19T06:58:18;19.27;;;3.95;;
19828;SDS011;10075;50.924;4.396;2023-09-19T07:00:45;14.32;;;2.90;;
19828;SDS011;10075;50.924;4.396;2023-09-19T07:03:13;11.82;;;2.97;;
19828;SDS011;10075;50.924;4.396;2023-09-19T07:05:41;11.60;;;2.67;;
19828;SDS011;10075;50.924;4.396;2023-09-19T07:08:10;13.07;;;2.63;;
19828;SDS011;10075;50.924;4.396;2023-09-19T07:10:37;16.48;;;2.95;;
19828;SDS011;10075;50.924;4.396;2023-09-19T07:13:06;16.30;;;2.60;;
19828;SDS011;10075;50.924;4.396;2023-09-19T07:15:35;11.27;;;2.70;;
19828;SDS011;10075;50.924;4.396;2023-09-19T07:18:05;13.15;;;2.50;;
19828;SDS011;10075;50.924;4.396;2023-09-19T07:20:35;13.50;;;2.50;;
19828;SDS011;10075;50.924;4.396;2023-09-19T07:23:03;11.10;;;2.40;;
19828;SDS011;10075;50.924;4.396;2023-09-19T07:25:32;15.68;;;3.25;;
19828;SDS011;10075;50.924;4.396;2023-09-19T07:28:02;14.98;;;3.25;;
19828;SDS011;10075;50.924;4.396;2023-09-19T07:30:29;13.43;;;3.20;;
19828;SDS011;10075;50.924;4.396;2023-09-19T07:32:56;13.40;;;2.72;;
19828;SDS011;10075;50.924;4.396;2023-09-19T07:35:23;16.92;;;3.00;;
19828;SDS011;10075;50.924;4.396;2023-09-19T07:37:50;13.77;;;2.35;;
19828;SDS011;10075;50.924;4.396;2023-09-19T07:40:17;10.18;;;2.58;;
19828;SDS011;10075;50.924;4.396;2023-09-19T07:42:46;13.65;;;2.92;;
19828;SDS011;10075;50.924;4.396;2023-09-19T07:45:13;14.65;;;2.58;;
19828;SDS011;10075;50.924;4.396;2023-09-19T07:47:43;10.77;;;2.67;;
19828;SDS011;10075;50.924;4.396;2023-09-19T07:50:11;11.13;;;2.38;;
19828;SDS011;10075;50.924;4.396;2023-09-19T07:52:38;11.05;;;2.85;;
19828;SDS011;10075;50.924;4.396;2023-09-19T07:55:06;14.57;;;2.85;;
19828;SDS011;10075;50.924;4.396;2023-09-19T07:57:35;10.95;;;3.05;;
19828;SDS011;10075;50.924;4.396;2023-09-19T08:00:04;15.65;;;2.92;;
19828;SDS011;10075;50.924;4.396;2023-09-19T08:02:34;7.35;;;2.53;;
19828;SDS011;10075;50.924;4.396;2023-09-19T08:05:03;12.68;;;3.15;;
19828;SDS011;10075;50.924;4.396;2023-09-19T08:07:32;12.75;;;3.08;;
19828;SDS011;10075;50.924;4.396;2023-09-19T08:10:01;9.93;;;2.35;;
19828;SDS011;10075;50.924;4.396;2023-09-19T08:12:28;14.20;;;3.33;;
19828;SDS011;10075;50.924;4.396;2023-09-19T08:14:56;14.65;;;2.80;;
19828;SDS011;10075;50.924;4.396;2023-09-19T08:17:24;15.98;;;3.22;;
19828;SDS011;10075;50.924;4.396;2023-09-19T08:19:51;16.65;;;2.60;;
19828;SDS011;10075;50.924;4.396;2023-09-19T08:22:19;12.55;;;3.42;;
19828;SDS011;10075;50.924;4.396;2023-09-19T08:24:46;18.02;;;3.60;;
19828;SDS011;10075;50.924;4.396;2023-09-19T08:27:14;12.40;;;3.10;;
19828;SDS011;10075;50.924;4.396;2023-09-19T08:29:43;14.90;;;3.42;;
19828;SDS011;10075;50.924;4.396;2023-09-19T08:32:11;14.70;;;3.25;;
19828;SDS011;10075;50.924;4.396;2023-09-19T08:34:40;14.80;;;3.13;;
19828;SDS011;10075;50.924;4.396;2023-09-19T08:37:07;16.88;;;2.97;;
19828;SDS011;10075;50.924;4.396;2023-09-19T08:39:35;11.95;;;2.95;;
19828;SDS011;10075;50.924;4.396;2023-09-19T08:42:03;22.33;;;4.38;;
19828;SDS011;10075;50.924;4.396;2023-09-19T08:44:30;14.32;;;2.70;;
19828;SDS011;10075;50.924;4.396;2023-09-19T08:47:05;11.40;;;2.97;;
19828;SDS011;10075;50.924;4.396;2023-09-19T08:49:37;10.13;;;2.45;;
19828;SDS011;10075;50.924;4.396;2023-09-19T08:52:19;26.77;;;3.95;;
19828;SDS011;10075;50.924;4.396;2023-09-19T08:54:49;14.98;;;2.65;;
19828;SDS011;10075;50.924;4.396;2023-09-19T08:57:19;15.77;;;2.80;;
19828;SDS011;10075;50.924;4.396;2023-09-19T08:59:47;17.42;;;2.67;;
19828;SDS011;10075;50.924;4.396;2023-09-19T09:02:15;13.75;;;2.78;;
19828;SDS011;10075;50.924;4.396;2023-09-19T09:04:46;8.75;;;2.30;;
19828;SDS011;10075;50.924;4.396;2023-09-19T09:07:15;13.13;;;2.88;;
19828;SDS011;10075;50.924;4.396;2023-09-19T09:09:44;12.18;;;2.75;;
19828;SDS011;10075;50.924;4.396;2023-09-19T09:12:12;12.88;;;2.50;;
19828;SDS011;10075;50.924;4.396;2023-09-19T09:14:40;12.00;;;2.70;;
19828;SDS011;10075;50.924;4.396;2023-09-19T09:17:10;11.63;;;2.70;;
19828;SDS011;10075;50.924;4.396;2023-09-19T09:19:38;10.93;;;2.85;;
19828;SDS011;10075;50.924;4.396;2023-09-19T09:22:08;10.95;;;2.33;;
19828;SDS011;10075;50.924;4.396;2023-09-19T09:24:36;14.00;;;2.80;;
19828;SDS011;10075;50.924;4.396;2023-09-19T09:27:05;15.48;;;2.38;;
19828;SDS011;10075;50.924;4.396;2023-09-19T09:29:41;13.82;;;2.70;;
19828;SDS011;10075;50.924;4.396;2023-09-19T09:32:19;14.32;;;3.15;;
19828;SDS011;10075;50.924;4.396;2023-09-19T09:34:48;12.23;;;2.50;;
19828;SDS011;10075;50.924;4.396;2023-09-19T09:37:18;12.75;;;2.58;;
19828;SDS011;10075;50.924;4.396;2023-09-19T09:39:50;11.10;;;2.58;;
19828;SDS011;10075;50.924;4.396;2023-09-19T09:42:29;6.55;;;1.73;;
19828;SDS011;10075;50.924;4.396;2023-09-19T09:45:12;10.35;;;2.20;;
19828;SDS011;10075;50.924;4.396;2023-09-19T09:47:43;6.35;;;1.70;;
19828;SDS011;10075;50.924;4.396;2023-09-19T09:50:25;9.35;;;2.20;;
19828;SDS011;10075;50.924;4.396;2023-09-19T09:53:06;8.82;;;1.98;;
19828;SDS011;10075;50.924;4.396;2023-09-19T09:55:59;10.45;;;2.00;;
19828;SDS011;10075;50.924;4.396;2023-09-19T09:58:27;11.45;;;2.13;;
19828;SDS011;10075;50.924;4.396;2023-09-19T10:00:56;12.88;;;2.05;;
19828;SDS011;10075;50.924;4.396;2023-09-19T10:03:33;6.32;;;1.60;;
19828;SDS011;10075;50.924;4.396;2023-09-19T10:06:04;11.77;;;2.78;;
19828;SDS011;10075;50.924;4.396;2023-09-19T10:09:01;10.20;;;2.00;;
19828;SDS011;10075;50.924;4.396;2023-09-19T10:11:36;12.35;;;2.83;;
19828;SDS011;10075;50.924;4.396;2023-09-19T10:14:08;4.93;;;1.48;;
19828;SDS011;10075;50.924;4.396;2023-09-19T10:16:38;8.85;;;1.92;;
19828;SDS011;10075;50.924;4.396;2023-09-19T10:19:11;9.85;;;2.35;;
19828;SDS011;10075;50.924;4.396;2023-09-19T10:21:47;9.43;;;1.70;;
19828;SDS011;10075;50.924;4.396;2023-09-19T10:24:18;9.40;;;2.40;;
19828;SDS011;10075;50.924;4.396;2023-09-19T10:26:46;11.75;;;2.03;;
19828;SDS011;10075;50.924;4.396;2023-09-19T10:29:15;9.25;;;2.20;;
19828;SDS011;10075;50.924;4.396;2023-09-19T10:31:44;10.20;;;1.83;;
19828;SDS011;10075;50.924;4.396;2023-09-19T10:34:15;6.70;;;1.67;;
19828;SDS011;10075;50.924;4.396;2023-09-19T10:36:44;4.65;;;1.67;;
19828;SDS011;10075;50.924;4.396;2023-09-19T10:39:13;9.63;;;1.65;;
19828;SDS011;10075;50.924;4.396;2023-09-19T10:41:47;9.10;;;1.58;;
19828;SDS011;10075;50.924;4.396;2023-09-19T10:44:20;6.22;;;1.50;;
19828;SDS011;10075;50.924;4.396;2023-09-19T10:46:50;5.45;;;1.50;;
19828;SDS011;10075;50.924;4.396;2023-09-19T10:49:19;7.65;;;1.20;;
19828;SDS011;10075;50.924;4.396;2023-09-19T10:51:46;9.48;;;2.10;;
19828;SDS011;10075;50.924;4.396;2023-09-19T10:54:16;7.30;;;1.48;;
19828;SDS011;10075;50.924;4.396;2023-09-19T10:56:48;9.65;;;1.75;;
19828;SDS011;10075;50.924;4.396;2023-09-19T10:59:17;8.23;;;1.85;;
19828;SDS011;10075;50.924;4.396;2023-09-19T11:01:46;4.97;;;1.20;;
19828;SDS011;10075;50.924;4.396;2023-09-19T11:04:29;9.35;;;1.63;;
19828;SDS011;10075;50.924;4.396;2023-09-19T11:06:59;7.05;;;1.48;;
19828;SDS011;10075;50.924;4.396;2023-09-19T11:09:46;5.38;;;1.42;;
19828;SDS011;10075;50.924;4.396;2023-09-19T11:21:40;9.15;;;1.10;;
19828;SDS011;10075;50.924;4.396;2023-09-19T11:24:31;10.05;;;1.60;;
19828;SDS011;10075;50.924;4.396;2023-09-19T11:27:14;2.55;;;0.98;;
19828;SDS011;10075;50.924;4.396;2023-09-19T11:29:45;3.83;;;1.30;;
19828;SDS011;10075;50.924;4.396;2023-09-19T11:32:12;13.27;;;1.60;;
19828;SDS011;10075;50.924;4.396;2023-09-19T11:34:43;7.25;;;1.60;;
19828;SDS011;10075;50.924;4.396;2023-09-19T11:40:36;5.38;;;1.23;;
19828;SDS011;10075;50.924;4.396;2023-09-19T11:48:47;7.20;;;1.40;;
19828;SDS011;10075;50.924;4.396;2023-09-19T11:51:18;17.77;;;2.30;;
19828;SDS011;10075;50.924;4.396;2023-09-19T11:53:48;8.00;;;1.40;;
19828;SDS011;10075;50.924;4.396;2023-09-19T11:56:17;7.05;;;1.10;;
19828;SDS011;10075;50.924;4.396;2023-09-19T11:58:45;7.68;;;1.40;;
19828;SDS011;10075;50.924;4.396;2023-09-19T12:01:14;11.50;;;1.80;;
19828;SDS011;10075;50.924;4.396;2023-09-19T12:03:51;4.70;;;1.25;;
19828;SDS011;10075;50.924;4.396;2023-09-19T12:06:19;6.20;;;1.30;;
19828;SDS011;10075;50.924;4.396;2023-09-19T12:08:48;4.78;;;0.98;;
19828;SDS011;10075;50.924;4.396;2023-09-19T12:11:19;5.13;;;1.23;;
19828;SDS011;10075;50.924;4.396;2023-09-19T12:13:48;6.90;;;1.58;;
19828;SDS011;10075;50.924;4.396;2023-09-19T12:16:16;7.13;;;1.55;;
19828;SDS011;10075;50.924;4.396;2023-09-19T12:18:47;5.78;;;1.48;;
19828;SDS011;10075;50.924;4.396;2023-09-19T12:24:06;5.82;;;1.38;;
19828;SDS011;10075;50.924;4.396;2023-09-19T12:26:41;7.53;;;1.55;;
19828;SDS011;10075;50.924;4.396;2023-09-19T12:29:13;6.07;;;1.30;;
19828;SDS011;10075;50.924;4.396;2023-09-19T12:31:52;8.25;;;1.33;;
19828;SDS011;10075;50.924;4.396;2023-09-19T12:34:24;7.03;;;1.65;;
19828;SDS011;10075;50.924;4.396;2023-09-19T12:37:12;6.75;;;1.25;;
19828;SDS011;10075;50.924;4.396;2023-09-19T12:39:46;6.55;;;1.48;;
19828;SDS011;10075;50.924;4.396;2023-09-19T12:42:16;7.38;;;1.38;;
19828;SDS011;10075;50.924;4.396;2023-09-19T12:44:44;7.45;;;1.30;;
19828;SDS011;10075;50.924;4.396;2023-09-19T12:47:13;5.13;;;1.58;;
19828;SDS011;10075;50.924;4.396;2023-09-19T12:50:11;6.28;;;1.70;;
19828;SDS011;10075;50.924;4.396;2023-09-19T12:52:43;5.65;;;1.10;;
19828;SDS011;10075;50.924;4.396;2023-09-19T12:55:22;8.18;;;1.08;;
19828;SDS011;10075;50.924;4.396;2023-09-19T12:58:01;6.47;;;1.20;;
19828;SDS011;10075;50.924;4.396;2023-09-19T13:00:35;4.30;;;1.20;;
19828;SDS011;10075;50.924;4.396;2023-09-19T13:03:11;5.95;;;1.20;;
19828;SDS011;10075;50.924;4.396;2023-09-19T13:05:56;6.55;;;1.50;;
19828;SDS011;10075;50.924;4.396;2023-09-19T13:08:26;4.18;;;1.27;;
19828;SDS011;10075;50.924;4.396;2023-09-19T13:11:00;8.38;;;1.52;;
19828;SDS011;10075;50.924;4.396;2023-09-19T13:13:32;6.38;;;1.38;;
19828;SDS011;10075;50.924;4.396;2023-09-19T13:16:01;6.05;;;1.60;;
19828;SDS011;10075;50.924;4.396;2023-09-19T13:18:29;5.53;;;1.00;;
19828;SDS011;10075;50.924;4.396;2023-09-19T13:21:09;4.95;;;1.27;;
19828;SDS011;10075;50.924;4.396;2023-09-19T13:23:37;7.07;;;1.63;;
19828;SDS011;10075;50.924;4.396;2023-09-19T13:26:05;3.70;;;1.38;;
19828;SDS011;10075;50.924;4.396;2023-09-19T13:28:33;4.65;;;0.93;;
19828;SDS011;10075;50.924;4.396;2023-09-19T13:31:01;4.22;;;1.10;;
19828;SDS011;10075;50.924;4.396;2023-09-19T13:33:28;3.55;;;1.13;;
19828;SDS011;10075;50.924;4.396;2023-09-19T13:35:55;5.72;;;1.38;;
19828;SDS011;10075;50.924;4.396;2023-09-19T13:38:24;2.65;;;1.00;;
19828;SDS011;10075;50.924;4.396;2023-09-19T13:40:51;4.22;;;1.27;;
19828;SDS011;10075;50.924;4.396;2023-09-19T13:43:18;9.00;;;1.73;;
19828;SDS011;10075;50.924;4.396;2023-09-19T13:45:47;7.50;;;1.48;;
19828;SDS011;10075;50.924;4.396;2023-09-19T13:48:15;3.13;;;1.20;;
19828;SDS011;10075;50.924;4.396;2023-09-19T13:50:45;4.90;;;1.50;;
19828;SDS011;10075;50.924;4.396;2023-09-19T13:53:13;10.82;;;1.90;;
19828;SDS011;10075;50.924;4.396;2023-09-19T13:55:41;7.20;;;1.58;;
19828;SDS011;10075;50.924;4.396;2023-09-19T13:58:08;4.78;;;1.45;;
19828;SDS011;10075;50.924;4.396;2023-09-19T14:00:37;5.72;;;1.52;;
19828;SDS011;10075;50.924;4.396;2023-09-19T14:03:04;6.47;;;1.40;;
19828;SDS011;10075;50.924;4.396;2023-09-19T14:05:31;8.25;;;1.30;;
19828;SDS011;10075;50.924;4.396;2023-09-19T14:07:58;5.50;;;1.40;;
19828;SDS011;10075;50.924;4.396;2023-09-19T14:10:26;4.53;;;1.38;;
19828;SDS011;10075;50.924;4.396;2023-09-19T14:12:56;8.90;;;1.55;;
19828;SDS011;10075;50.924;4.396;2023-09-19T14:15:24;5.60;;;1.58;;
19828;SDS011;10075;50.924;4.396;2023-09-19T14:17:55;10.85;;;2.00;;
19828;SDS011;10075;50.924;4.396;2023-09-19T14:20:22;6.45;;;1.70;;
19828;SDS011;10075;50.924;4.396;2023-09-19T14:22:49;8.02;;;1.80;;
19828;SDS011;10075;50.924;4.396;2023-09-19T14:25:16;6.88;;;2.03;;
19828;SDS011;10075;50.924;4.396;2023-09-19T14:27:43;2.97;;;1.38;;
19828;SDS011;10075;50.924;4.396;2023-09-19T14:30:12;4.70;;;1.70;;
19828;SDS011;10075;50.924;4.396;2023-09-19T14:32:39;5.45;;;1.42;;
19828;SDS011;10075;50.924;4.396;2023-09-19T14:35:07;7.93;;;1.67;;
19828;SDS011;10075;50.924;4.396;2023-09-19T14:37:35;4.10;;;1.33;;
19828;SDS011;10075;50.924;4.396;2023-09-19T14:40:03;5.38;;;1.45;;
19828;SDS011;10075;50.924;4.396;2023-09-19T14:42:34;6.75;;;1.50;;
19828;SDS011;10075;50.924;4.396;2023-09-19T14:45:03;5.93;;;1.55;;
19828;SDS011;10075;50.924;4.396;2023-09-19T14:47:33;8.07;;;2.08;;
19828;SDS011;10075;50.924;4.396;2023-09-19T14:50:00;14.32;;;1.80;;
19828;SDS011;10075;50.924;4.396;2023-09-19T14:52:31;6.38;;;1.75;;
19828;SDS011;10075;50.924;4.396;2023-09-19T14:54:59;6.65;;;1.52;;
19828;SDS011;10075;50.924;4.396;2023-09-19T14:57:26;9.38;;;1.80;;
19828;SDS011;10075;50.924;4.396;2023-09-19T14:59:54;6.35;;;1.63;;
19828;SDS011;10075;50.924;4.396;2023-09-19T15:02:21;9.32;;;2.05;;
19828;SDS011;10075;50.924;4.396;2023-09-19T15:04:50;4.57;;;1.58;;
19828;SDS011;10075;50.924;4.396;2023-09-19T15:07:18;4.63;;;1.55;;
19828;SDS011;10075;50.924;4.396;2023-09-19T15:09:45;6.30;;;1.58;;
19828;SDS011;10075;50.924;4.396;2023-09-19T15:12:12;10.40;;;1.70;;
19828;SDS011;10075;50.924;4.396;2023-09-19T15:14:40;8.82;;;2.00;;
19828;SDS011;10075;50.924;4.396;2023-09-19T15:17:07;5.95;;;1.88;;
19828;SDS011;10075;50.924;4.396;2023-09-19T15:19:34;8.30;;;1.80;;
19828;SDS011;10075;50.924;4.396;2023-09-19T15:22:04;7.80;;;1.83;;
19828;SDS011;10075;50.924;4.396;2023-09-19T15:24:32;10.68;;;1.85;;